Terminal Aerodrome Forecast
Issued by NWS

Home | Current Version | Previous Version | Text Only | Print | Product List | Glossary On
Versions: 1 2 3 4 5 6 7 8 9 10 11 12 13
000
FTUS44 KLIX 231120
TAFHUM
TAF
KHUM 231120Z 2312/2412 00000KT P6SM SCT020
     FM231500 25005KT P6SM SCT035 BKN090
      TEMPO 2315/2319 4SM -TSRA BKN025CB BKN030 BKN035
     FM231900 24009KT P6SM SCT020 OVC090
      TEMPO 2319/2323 4SM -TSRA BKN020CB
     FM232300 24008KT P6SM SCT025 BKN100=

USA.gov is the U.S. government's official web portal to all federal, state and local government web resources and services.